sensor_id;sensor_type;location;lat;lon;timestamp;temperature;humidity
31765;DHT22;18338;53.240;8.798;2023-02-11T00:01:32;6.60;99.90
31765;DHT22;18338;53.240;8.798;2023-02-11T00:03:59;6.60;99.90
31765;DHT22;18338;53.240;8.798;2023-02-11T00:06:28;6.60;99.90
31765;DHT22;18338;53.240;8.798;2023-02-11T00:08:55;6.60;99.90
31765;DHT22;18338;53.240;8.798;2023-02-11T00:11:27;6.60;99.90
31765;DHT22;18338;53.240;8.798;2023-02-11T00:13:59;6.60;99.90
31765;DHT22;18338;53.240;8.798;2023-02-11T00:16:26;6.60;99.90
31765;DHT22;18338;53.240;8.798;2023-02-11T00:18:53;6.60;99.90
31765;DHT22;18338;53.240;8.798;2023-02-11T00:21:22;6.60;99.90
31765;DHT22;18338;53.240;8.798;2023-02-11T00:23:50;6.70;99.90
31765;DHT22;18338;53.240;8.798;2023-02-11T00:26:20;6.70;99.90
31765;DHT22;18338;53.240;8.798;2023-02-11T00:28:48;6.70;99.90
31765;DHT22;18338;53.240;8.798;2023-02-11T00:31:16;6.70;99.90
31765;DHT22;18338;53.240;8.798;2023-02-11T00:33:44;6.70;99.90
31765;DHT22;18338;53.240;8.798;2023-02-11T00:36:15;6.70;99.90
31765;DHT22;18338;53.240;8.798;2023-02-11T00:38:43;6.80;99.90
31765;DHT22;18338;53.240;8.798;2023-02-11T00:41:10;6.70;99.90
31765;DHT22;18338;53.240;8.798;2023-02-11T00:43:39;6.80;99.90
31765;DHT22;18338;53.240;8.798;2023-02-11T00:46:06;6.70;99.90
31765;DHT22;18338;53.240;8.798;2023-02-11T00:48:34;6.70;99.90
31765;DHT22;18338;53.240;8.798;2023-02-11T00:51:01;6.80;99.90
31765;DHT22;18338;53.240;8.798;2023-02-11T00:53:30;6.80;99.90
31765;DHT22;18338;53.240;8.798;2023-02-11T00:55:57;6.80;99.90
31765;DHT22;18338;53.240;8.798;2023-02-11T00:58:23;6.90;99.90
31765;DHT22;18338;53.240;8.798;2023-02-11T01:00:50;6.90;99.90
31765;DHT22;18338;53.240;8.798;2023-02-11T01:03:17;6.90;99.90
31765;DHT22;18338;53.240;8.798;2023-02-11T01:05:44;6.90;99.90
31765;DHT22;18338;53.240;8.798;2023-02-11T01:08:11;6.90;99.90
31765;DHT22;18338;53.240;8.798;2023-02-11T01:10:37;6.90;99.90
31765;DHT22;18338;53.240;8.798;2023-02-11T01:13:04;6.90;99.90
31765;DHT22;18338;53.240;8.798;2023-02-11T01:15:32;6.90;99.90
31765;DHT22;18338;53.240;8.798;2023-02-11T01:17:59;6.90;99.90
31765;DHT22;18338;53.240;8.798;2023-02-11T01:20:27;6.90;99.90
31765;DHT22;18338;53.240;8.798;2023-02-11T01:22:53;6.90;99.90
31765;DHT22;18338;53.240;8.798;2023-02-11T01:25:20;7.00;99.90
31765;DHT22;18338;53.240;8.798;2023-02-11T01:27:47;7.00;99.90
31765;DHT22;18338;53.240;8.798;2023-02-11T01:30:13;6.90;99.90
31765;DHT22;18338;53.240;8.798;2023-02-11T01:32:40;7.00;99.90
31765;DHT22;18338;53.240;8.798;2023-02-11T01:35:07;7.00;99.90
31765;DHT22;18338;53.240;8.798;2023-02-11T01:37:35;7.00;99.90
31765;DHT22;18338;53.240;8.798;2023-02-11T01:40:04;7.00;99.90
31765;DHT22;18338;53.240;8.798;2023-02-11T01:42:32;7.00;99.90
31765;DHT22;18338;53.240;8.798;2023-02-11T01:45:00;7.00;99.90
31765;DHT22;18338;53.240;8.798;2023-02-11T01:47:47;7.00;99.90
31765;DHT22;18338;53.240;8.798;2023-02-11T01:50:13;7.00;99.90
31765;DHT22;18338;53.240;8.798;2023-02-11T01:52:40;7.00;99.90
31765;DHT22;18338;53.240;8.798;2023-02-11T01:55:10;7.00;99.90
31765;DHT22;18338;53.240;8.798;2023-02-11T01:57:59;7.00;99.90
31765;DHT22;18338;53.240;8.798;2023-02-11T02:00:34;7.00;99.90
31765;DHT22;18338;53.240;8.798;2023-02-11T02:03:17;7.00;99.90
31765;DHT22;18338;53.240;8.798;2023-02-11T02:06:08;7.00;99.90
31765;DHT22;18338;53.240;8.798;2023-02-11T02:08:55;7.00;99.90
31765;DHT22;18338;53.240;8.798;2023-02-11T02:11:23;7.00;99.90
31765;DHT22;18338;53.240;8.798;2023-02-11T02:13:49;7.00;99.90
31765;DHT22;18338;53.240;8.798;2023-02-11T02:16:18;7.00;99.90
31765;DHT22;18338;53.240;8.798;2023-02-11T02:18:55;7.00;99.90
31765;DHT22;18338;53.240;8.798;2023-02-11T02:32:46;7.10;99.90
31765;DHT22;18338;53.240;8.798;2023-02-11T02:35:39;7.10;99.90
31765;DHT22;18338;53.240;8.798;2023-02-11T02:38:12;7.10;99.90
31765;DHT22;18338;53.240;8.798;2023-02-11T02:40:58;7.10;99.90
31765;DHT22;18338;53.240;8.798;2023-02-11T02:43:26;7.10;99.90
31765;DHT22;18338;53.240;8.798;2023-02-11T02:45:53;7.10;99.90
31765;DHT22;18338;53.240;8.798;2023-02-11T02:48:28;7.10;99.90
31765;DHT22;18338;53.240;8.798;2023-02-11T02:51:38;7.10;99.90
31765;DHT22;18338;53.240;8.798;2023-02-11T02:57:52;7.10;99.90
31765;DHT22;18338;53.240;8.798;2023-02-11T03:03:08;7.20;99.90
31765;DHT22;18338;53.240;8.798;2023-02-11T03:05:51;7.10;99.90
31765;DHT22;18338;53.240;8.798;2023-02-11T03:08:45;7.20;99.90
31765;DHT22;18338;53.240;8.798;2023-02-11T03:11:16;7.10;99.90
31765;DHT22;18338;53.240;8.798;2023-02-11T03:13:45;7.20;99.90
31765;DHT22;18338;53.240;8.798;2023-02-11T03:16:17;7.20;99.90
31765;DHT22;18338;53.240;8.798;2023-02-11T03:19:14;7.20;99.90
31765;DHT22;18338;53.240;8.798;2023-02-11T03:21:43;7.20;99.90
31765;DHT22;18338;53.240;8.798;2023-02-11T03:24:15;7.20;99.90
31765;DHT22;18338;53.240;8.798;2023-02-11T03:26:47;7.20;99.90
31765;DHT22;18338;53.240;8.798;2023-02-11T03:29:23;7.20;99.90
31765;DHT22;18338;53.240;8.798;2023-02-11T03:32:03;7.20;99.90
31765;DHT22;18338;53.240;8.798;2023-02-11T03:34:38;7.20;99.90
31765;DHT22;18338;53.240;8.798;2023-02-11T03:37:19;7.20;99.90
31765;DHT22;18338;53.240;8.798;2023-02-11T03:40:18;7.20;99.90
31765;DHT22;18338;53.240;8.798;2023-02-11T03:42:56;7.20;99.90
31765;DHT22;18338;53.240;8.798;2023-02-11T03:45:24;7.20;99.90
31765;DHT22;18338;53.240;8.798;2023-02-11T03:47:59;7.20;99.90
31765;DHT22;18338;53.240;8.798;2023-02-11T03:50:29;7.20;99.90
31765;DHT22;18338;53.240;8.798;2023-02-11T03:52:59;7.20;99.90
31765;DHT22;18338;53.240;8.798;2023-02-11T03:55:27;7.20;99.90
31765;DHT22;18338;53.240;8.798;2023-02-11T03:57:55;7.20;99.90
31765;DHT22;18338;53.240;8.798;2023-02-11T04:00:32;7.30;99.90
31765;DHT22;18338;53.240;8.798;2023-02-11T04:02:59;7.30;99.90
31765;DHT22;18338;53.240;8.798;2023-02-11T04:05:26;7.30;99.90
31765;DHT22;18338;53.240;8.798;2023-02-11T04:07:53;7.30;99.90
31765;DHT22;18338;53.240;8.798;2023-02-11T04:10:19;7.30;99.90
31765;DHT22;18338;53.240;8.798;2023-02-11T04:12:46;7.30;99.90
31765;DHT22;18338;53.240;8.798;2023-02-11T04:15:13;7.30;99.90
31765;DHT22;18338;53.240;8.798;2023-02-11T04:17:39;7.30;99.90
31765;DHT22;18338;53.240;8.798;2023-02-11T04:20:07;7.30;99.90
31765;DHT22;18338;53.240;8.798;2023-02-11T04:22:34;7.40;99.90
31765;DHT22;18338;53.240;8.798;2023-02-11T04:25:00;7.40;99.90
31765;DHT22;18338;53.240;8.798;2023-02-11T04:27:27;7.40;99.90
31765;DHT22;18338;53.240;8.798;2023-02-11T04:29:54;7.40;99.90
31765;DHT22;18338;53.240;8.798;2023-02-11T04:32:20;7.40;99.90
31765;DHT22;18338;53.240;8.798;2023-02-11T04:34:47;7.40;99.90
31765;DHT22;18338;53.240;8.798;2023-02-11T04:37:14;7.40;99.90
31765;DHT22;18338;53.240;8.798;2023-02-11T04:39:40;7.40;99.90
31765;DHT22;18338;53.240;8.798;2023-02-11T04:42:07;7.40;99.90
31765;DHT22;18338;53.240;8.798;2023-02-11T04:44:34;7.40;99.90
31765;DHT22;18338;53.240;8.798;2023-02-11T04:47:01;7.40;99.90
31765;DHT22;18338;53.240;8.798;2023-02-11T04:49:27;7.40;99.90
31765;DHT22;18338;53.240;8.798;2023-02-11T04:51:54;7.40;99.90
31765;DHT22;18338;53.240;8.798;2023-02-11T04:54:21;7.40;99.90
31765;DHT22;18338;53.240;8.798;2023-02-11T04:56:47;7.40;99.90
31765;DHT22;18338;53.240;8.798;2023-02-11T04:59:15;7.30;99.90
31765;DHT22;18338;53.240;8.798;2023-02-11T05:01:41;7.30;99.90
31765;DHT22;18338;53.240;8.798;2023-02-11T05:04:08;7.30;99.90
31765;DHT22;18338;53.240;8.798;2023-02-11T05:06:37;7.30;99.90
31765;DHT22;18338;53.240;8.798;2023-02-11T05:09:04;7.20;99.90
31765;DHT22;18338;53.240;8.798;2023-02-11T05:11:31;7.20;99.90
31765;DHT22;18338;53.240;8.798;2023-02-11T05:13:58;7.20;99.90
31765;DHT22;18338;53.240;8.798;2023-02-11T05:16:24;7.20;99.90
31765;DHT22;18338;53.240;8.798;2023-02-11T05:18:51;7.20;99.90
31765;DHT22;18338;53.240;8.798;2023-02-11T05:21:19;7.30;99.90
31765;DHT22;18338;53.240;8.798;2023-02-11T05:23:46;7.30;99.90
31765;DHT22;18338;53.240;8.798;2023-02-11T05:26:13;7.30;99.90
31765;DHT22;18338;53.240;8.798;2023-02-11T05:28:40;7.30;99.90
31765;DHT22;18338;53.240;8.798;2023-02-11T05:31:07;7.30;99.90
31765;DHT22;18338;53.240;8.798;2023-02-11T05:33:35;7.30;99.90
31765;DHT22;18338;53.240;8.798;2023-02-11T05:36:04;7.30;99.90
31765;DHT22;18338;53.240;8.798;2023-02-11T05:38:32;7.30;99.90
31765;DHT22;18338;53.240;8.798;2023-02-11T05:40:59;7.30;99.90
31765;DHT22;18338;53.240;8.798;2023-02-11T05:43:26;7.30;99.90
31765;DHT22;18338;53.240;8.798;2023-02-11T05:45:53;7.30;99.90
31765;DHT22;18338;53.240;8.798;2023-02-11T05:48:20;7.30;99.90
31765;DHT22;18338;53.240;8.798;2023-02-11T05:50:46;7.40;99.90
31765;DHT22;18338;53.240;8.798;2023-02-11T05:53:13;7.30;99.90
31765;DHT22;18338;53.240;8.798;2023-02-11T05:55:40;7.30;99.90
31765;DHT22;18338;53.240;8.798;2023-02-11T05:58:06;7.30;99.90
31765;DHT22;18338;53.240;8.798;2023-02-11T06:00:33;7.30;99.90
31765;DHT22;18338;53.240;8.798;2023-02-11T06:03:00;7.30;99.90
31765;DHT22;18338;53.240;8.798;2023-02-11T06:05:27;7.40;99.90
31765;DHT22;18338;53.240;8.798;2023-02-11T06:07:54;7.30;99.90
31765;DHT22;18338;53.240;8.798;2023-02-11T06:10:20;7.30;99.90
31765;DHT22;18338;53.240;8.798;2023-02-11T06:12:47;7.30;99.90
31765;DHT22;18338;53.240;8.798;2023-02-11T06:15:14;7.30;99.90
31765;DHT22;18338;53.240;8.798;2023-02-11T06:17:40;7.30;99.90
31765;DHT22;18338;53.240;8.798;2023-02-11T06:20:08;7.30;99.90
31765;DHT22;18338;53.240;8.798;2023-02-11T06:22:35;7.30;99.90
31765;DHT22;18338;53.240;8.798;2023-02-11T06:25:02;7.30;99.90
31765;DHT22;18338;53.240;8.798;2023-02-11T06:27:29;7.40;99.90
31765;DHT22;18338;53.240;8.798;2023-02-11T06:29:56;7.40;99.90
31765;DHT22;18338;53.240;8.798;2023-02-11T06:32:23;7.40;99.90
31765;DHT22;18338;53.240;8.798;2023-02-11T06:35:09;7.40;99.90
31765;DHT22;18338;53.240;8.798;2023-02-11T06:37:38;7.40;99.90
31765;DHT22;18338;53.240;8.798;2023-02-11T06:40:05;7.50;99.90
31765;DHT22;18338;53.240;8.798;2023-02-11T06:42:32;7.40;99.90
31765;DHT22;18338;53.240;8.798;2023-02-11T06:44:59;7.50;99.90
31765;DHT22;18338;53.240;8.798;2023-02-11T06:47:26;7.50;99.90
31765;DHT22;18338;53.240;8.798;2023-02-11T06:49:53;7.50;99.90
31765;DHT22;18338;53.240;8.798;2023-02-11T06:52:19;7.50;99.90
31765;DHT22;18338;53.240;8.798;2023-02-11T06:54:46;7.50;99.90
31765;DHT22;18338;53.240;8.798;2023-02-11T06:57:13;7.60;99.90
31765;DHT22;18338;53.240;8.798;2023-02-11T06:59:40;7.60;99.90
31765;DHT22;18338;53.240;8.798;2023-02-11T07:02:09;7.60;99.90
31765;DHT22;18338;53.240;8.798;2023-02-11T07:04:36;7.60;99.90
31765;DHT22;18338;53.240;8.798;2023-02-11T07:07:02;7.60;99.90
31765;DHT22;18338;53.240;8.798;2023-02-11T07:09:29;7.70;99.90
31765;DHT22;18338;53.240;8.798;2023-02-11T07:11:55;7.70;99.90
31765;DHT22;18338;53.240;8.798;2023-02-11T07:14:22;7.70;99.90
31765;DHT22;18338;53.240;8.798;2023-02-11T07:16:49;7.80;99.90
31765;DHT22;18338;53.240;8.798;2023-02-11T07:19:15;7.70;99.90
31765;DHT22;18338;53.240;8.798;2023-02-11T07:21:42;7.70;99.90
31765;DHT22;18338;53.240;8.798;2023-02-11T07:24:09;7.80;99.90
31765;DHT22;18338;53.240;8.798;2023-02-11T07:26:36;7.80;99.90
31765;DHT22;18338;53.240;8.798;2023-02-11T07:29:03;7.80;99.90
31765;DHT22;18338;53.240;8.798;2023-02-11T07:31:30;7.80;99.90
31765;DHT22;18338;53.240;8.798;2023-02-11T07:33:59;7.80;99.90
31765;DHT22;18338;53.240;8.798;2023-02-11T07:36:27;7.80;99.90
31765;DHT22;18338;53.240;8.798;2023-02-11T07:38:54;7.80;99.90
31765;DHT22;18338;53.240;8.798;2023-02-11T07:41:22;7.80;99.90
31765;DHT22;18338;53.240;8.798;2023-02-11T07:43:50;7.80;99.90
31765;DHT22;18338;53.240;8.798;2023-02-11T07:46:19;7.90;99.90
31765;DHT22;18338;53.240;8.798;2023-02-11T07:48:46;7.80;99.90
31765;DHT22;18338;53.240;8.798;2023-02-11T07:51:16;7.80;99.90
31765;DHT22;18338;53.240;8.798;2023-02-11T07:53:43;7.80;99.90
31765;DHT22;18338;53.240;8.798;2023-02-11T07:56:12;7.80;99.90
31765;DHT22;18338;53.240;8.798;2023-02-11T07:58:39;7.90;99.90
31765;DHT22;18338;53.240;8.798;2023-02-11T08:01:14;7.90;99.90
31765;DHT22;18338;53.240;8.798;2023-02-11T08:03:41;7.90;99.90
31765;DHT22;18338;53.240;8.798;2023-02-11T08:06:13;7.90;99.90
31765;DHT22;18338;53.240;8.798;2023-02-11T08:08:41;7.90;99.90
31765;DHT22;18338;53.240;8.798;2023-02-11T08:11:13;7.90;99.90
31765;DHT22;18338;53.240;8.798;2023-02-11T08:13:40;8.00;99.90
31765;DHT22;18338;53.240;8.798;2023-02-11T08:16:07;8.00;99.90
31765;DHT22;18338;53.240;8.798;2023-02-11T08:18:35;8.00;99.90
31765;DHT22;18338;53.240;8.798;2023-02-11T08:21:08;8.00;99.90
31765;DHT22;18338;53.240;8.798;2023-02-11T08:23:37;8.00;99.90
31765;DHT22;18338;53.240;8.798;2023-02-11T08:26:07;8.00;99.90
31765;DHT22;18338;53.240;8.798;2023-02-11T08:28:36;8.00;99.90
31765;DHT22;18338;53.240;8.798;2023-02-11T08:31:18;8.00;99.90
31765;DHT22;18338;53.240;8.798;2023-02-11T08:33:46;8.10;99.90
31765;DHT22;18338;53.240;8.798;2023-02-11T08:36:16;8.00;99.90
31765;DHT22;18338;53.240;8.798;2023-02-11T08:38:43;8.10;99.90
31765;DHT22;18338;53.240;8.798;2023-02-11T08:41:10;8.10;99.90
31765;DHT22;18338;53.240;8.798;2023-02-11T08:43:40;8.10;99.90
31765;DHT22;18338;53.240;8.798;2023-02-11T08:46:09;8.10;99.90
31765;DHT22;18338;53.240;8.798;2023-02-11T08:48:37;8.10;99.90
31765;DHT22;18338;53.240;8.798;2023-02-11T08:51:08;8.10;99.90
31765;DHT22;18338;53.240;8.798;2023-02-11T08:53:36;8.10;99.90
31765;DHT22;18338;53.240;8.798;2023-02-11T08:56:02;8.10;99.90
31765;DHT22;18338;53.240;8.798;2023-02-11T08:58:29;8.10;99.90
31765;DHT22;18338;53.240;8.798;2023-02-11T09:00:56;8.10;99.90
31765;DHT22;18338;53.240;8.798;2023-02-11T09:03:23;8.20;99.90
31765;DHT22;18338;53.240;8.798;2023-02-11T09:05:50;8.20;99.90
31765;DHT22;18338;53.240;8.798;2023-02-11T09:08:19;8.20;99.90
31765;DHT22;18338;53.240;8.798;2023-02-11T09:10:46;8.20;99.90
31765;DHT22;18338;53.240;8.798;2023-02-11T09:13:13;8.20;99.90
31765;DHT22;18338;53.240;8.798;2023-02-11T09:15:39;8.20;99.90
31765;DHT22;18338;53.240;8.798;2023-02-11T09:18:09;8.20;99.90
31765;DHT22;18338;53.240;8.798;2023-02-11T09:20:36;8.20;99.90
31765;DHT22;18338;53.240;8.798;2023-02-11T09:23:03;8.20;99.90
31765;DHT22;18338;53.240;8.798;2023-02-11T09:25:29;8.30;99.90
31765;DHT22;18338;53.240;8.798;2023-02-11T09:27:56;8.30;99.90
31765;DHT22;18338;53.240;8.798;2023-02-11T09:30:23;8.30;99.90
31765;DHT22;18338;53.240;8.798;2023-02-11T09:32:49;8.30;99.90
31765;DHT22;18338;53.240;8.798;2023-02-11T09:35:16;8.30;99.90
31765;DHT22;18338;53.240;8.798;2023-02-11T09:37:43;8.30;99.90
31765;DHT22;18338;53.240;8.798;2023-02-11T09:40:09;8.30;99.90
31765;DHT22;18338;53.240;8.798;2023-02-11T09:43:03;8.40;99.90
31765;DHT22;18338;53.240;8.798;2023-02-11T09:45:31;8.30;99.90
31765;DHT22;18338;53.240;8.798;2023-02-11T09:48:17;8.30;99.90
31765;DHT22;18338;53.240;8.798;2023-02-11T09:50:51;8.40;99.90
31765;DHT22;18338;53.240;8.798;2023-02-11T09:53:24;8.30;99.90
31765;DHT22;18338;53.240;8.798;2023-02-11T09:55:56;8.30;99.90
31765;DHT22;18338;53.240;8.798;2023-02-11T09:58:34;8.40;99.90
31765;DHT22;18338;53.240;8.798;2023-02-11T10:01:15;8.40;99.90
31765;DHT22;18338;53.240;8.798;2023-02-11T10:06:42;8.30;99.90
31765;DHT22;18338;53.240;8.798;2023-02-11T10:09:29;8.40;99.90
31765;DHT22;18338;53.240;8.798;2023-02-11T10:15:14;8.40;99.90
31765;DHT22;18338;53.240;8.798;2023-02-11T10:18:16;8.40;99.90
31765;DHT22;18338;53.240;8.798;2023-02-11T10:23:33;8.50;99.90
31765;DHT22;18338;53.240;8.798;2023-02-11T10:26:27;8.50;99.90
31765;DHT22;18338;53.240;8.798;2023-02-11T10:29:34;8.50;99.90
31765;DHT22;18338;53.240;8.798;2023-02-11T10:32:30;8.50;99.90
31765;DHT22;18338;53.240;8.798;2023-02-11T10:35:17;8.50;99.90
31765;DHT22;18338;53.240;8.798;2023-02-11T10:37:47;8.50;99.90
31765;DHT22;18338;53.240;8.798;2023-02-11T10:40:31;8.50;99.90
31765;DHT22;18338;53.240;8.798;2023-02-11T10:43:27;8.60;99.90
31765;DHT22;18338;53.240;8.798;2023-02-11T10:46:18;8.50;99.90
31765;DHT22;18338;53.240;8.798;2023-02-11T10:48:50;8.60;99.90
31765;DHT22;18338;53.240;8.798;2023-02-11T10:51:28;8.60;99.90
31765;DHT22;18338;53.240;8.798;2023-02-11T10:56:49;8.60;99.90
31765;DHT22;18338;53.240;8.798;2023-02-11T10:59:32;8.60;99.90
31765;DHT22;18338;53.240;8.798;2023-02-11T11:02:03;8.60;99.90
31765;DHT22;18338;53.240;8.798;2023-02-11T11:04:42;8.60;99.90
31765;DHT22;18338;53.240;8.798;2023-02-11T11:07:12;8.60;99.90
31765;DHT22;18338;53.240;8.798;2023-02-11T11:12:33;8.60;99.90
31765;DHT22;18338;53.240;8.798;2023-02-11T11:17:37;8.60;99.90
31765;DHT22;18338;53.240;8.798;2023-02-11T11:20:29;8.60;99.90
31765;DHT22;18338;53.240;8.798;2023-02-11T11:23:20;8.60;99.90
31765;DHT22;18338;53.240;8.798;2023-02-11T11:26:08;8.50;99.90
31765;DHT22;18338;53.240;8.798;2023-02-11T11:31:23;8.60;99.90
31765;DHT22;18338;53.240;8.798;2023-02-11T11:33:54;8.60;99.90
31765;DHT22;18338;53.240;8.798;2023-02-11T11:36:37;8.70;99.90
31765;DHT22;18338;53.240;8.798;2023-02-11T11:39:20;8.70;99.90
31765;DHT22;18338;53.240;8.798;2023-02-11T11:41:54;8.70;99.90
31765;DHT22;18338;53.240;8.798;2023-02-11T11:44:31;8.70;99.90
31765;DHT22;18338;53.240;8.798;2023-02-11T11:52:32;8.80;99.90
31765;DHT22;18338;53.240;8.798;2023-02-11T11:55:13;8.80;99.90
31765;DHT22;18338;53.240;8.798;2023-02-11T11:57:41;8.80;99.90
31765;DHT22;18338;53.240;8.798;2023-02-11T12:00:19;8.90;99.90
31765;DHT22;18338;53.240;8.798;2023-02-11T12:05:53;8.90;99.90
31765;DHT22;18338;53.240;8.798;2023-02-11T12:08:55;8.80;99.90
31765;DHT22;18338;53.240;8.798;2023-02-11T12:33:29;9.00;99.90
31765;DHT22;18338;53.240;8.798;2023-02-11T12:36:33;9.00;99.90
31765;DHT22;18338;53.240;8.798;2023-02-11T12:50:34;9.20;99.90
31765;DHT22;18338;53.240;8.798;2023-02-11T12:53:17;9.20;99.90
31765;DHT22;18338;53.240;8.798;2023-02-11T12:56:31;9.20;99.90
31765;DHT22;18338;53.240;8.798;2023-02-11T12:58:59;9.10;99.90
31765;DHT22;18338;53.240;8.798;2023-02-11T13:01:33;9.10;99.90
31765;DHT22;18338;53.240;8.798;2023-02-11T13:04:09;9.10;99.90
31765;DHT22;18338;53.240;8.798;2023-02-11T13:06:42;9.10;99.90
31765;DHT22;18338;53.240;8.798;2023-02-11T13:09:17;9.10;99.90
31765;DHT22;18338;53.240;8.798;2023-02-11T13:11:52;9.20;99.90
31765;DHT22;18338;53.240;8.798;2023-02-11T13:14:25;9.20;99.90
31765;DHT22;18338;53.240;8.798;2023-02-11T13:16:54;9.20;99.90
31765;DHT22;18338;53.240;8.798;2023-02-11T13:19:25;9.10;99.90
31765;DHT22;18338;53.240;8.798;2023-02-11T13:25:14;9.10;99.90
31765;DHT22;18338;53.240;8.798;2023-02-11T13:28:13;9.20;99.90
31765;DHT22;18338;53.240;8.798;2023-02-11T13:30:45;9.20;99.90
31765;DHT22;18338;53.240;8.798;2023-02-11T13:33:33;9.20;99.90
31765;DHT22;18338;53.240;8.798;2023-02-11T13:38:35;9.20;99.90
31765;DHT22;18338;53.240;8.798;2023-02-11T13:41:29;9.20;99.90
31765;DHT22;18338;53.240;8.798;2023-02-11T13:44:02;9.10;99.90
31765;DHT22;18338;53.240;8.798;2023-02-11T13:47:04;9.10;99.90
31765;DHT22;18338;53.240;8.798;2023-02-11T13:52:25;9.10;99.90
31765;DHT22;18338;53.240;8.798;2023-02-11T13:54:54;9.10;99.90
31765;DHT22;18338;53.240;8.798;2023-02-11T13:57:31;9.10;99.90
31765;DHT22;18338;53.240;8.798;2023-02-11T14:00:46;9.10;99.90
31765;DHT22;18338;53.240;8.798;2023-02-11T14:11:50;9.10;99.90
31765;DHT22;18338;53.240;8.798;2023-02-11T14:14:26;9.20;99.90
31765;DHT22;18338;53.240;8.798;2023-02-11T14:19:35;9.20;99.90
31765;DHT22;18338;53.240;8.798;2023-02-11T14:22:03;9.20;99.90
31765;DHT22;18338;53.240;8.798;2023-02-11T14:27:33;9.20;99.90
31765;DHT22;18338;53.240;8.798;2023-02-11T14:30:31;9.20;99.90
31765;DHT22;18338;53.240;8.798;2023-02-11T14:38:57;9.20;99.90
31765;DHT22;18338;53.240;8.798;2023-02-11T14:41:31;9.20;99.90
31765;DHT22;18338;53.240;8.798;2023-02-11T14:44:05;9.20;99.90
31765;DHT22;18338;53.240;8.798;2023-02-11T14:46:33;9.20;99.90
31765;DHT22;18338;53.240;8.798;2023-02-11T14:49:02;9.20;99.90
31765;DHT22;18338;53.240;8.798;2023-02-11T14:51:33;9.20;99.90
31765;DHT22;18338;53.240;8.798;2023-02-11T14:54:14;9.10;99.90
31765;DHT22;18338;53.240;8.798;2023-02-11T14:56:43;9.10;99.90
31765;DHT22;18338;53.240;8.798;2023-02-11T14:59:21;9.10;99.90
31765;DHT22;18338;53.240;8.798;2023-02-11T15:01:51;9.10;99.90
31765;DHT22;18338;53.240;8.798;2023-02-11T15:04:25;9.10;99.90
31765;DHT22;18338;53.240;8.798;2023-02-11T15:06:53;9.10;99.90
31765;DHT22;18338;53.240;8.798;2023-02-11T15:09:29;9.10;99.90
31765;DHT22;18338;53.240;8.798;2023-02-11T15:11:58;9.10;99.90
31765;DHT22;18338;53.240;8.798;2023-02-11T15:14:27;9.10;99.90
31765;DHT22;18338;53.240;8.798;2023-02-11T15:16:58;9.10;99.90
31765;DHT22;18338;53.240;8.798;2023-02-11T15:22:03;9.00;99.90
31765;DHT22;18338;53.240;8.798;2023-02-11T15:24:32;9.00;99.90
31765;DHT22;18338;53.240;8.798;2023-02-11T15:29:37;9.00;99.90
31765;DHT22;18338;53.240;8.798;2023-02-11T15:32:06;9.00;99.90
31765;DHT22;18338;53.240;8.798;2023-02-11T15:34:33;9.00;99.90
31765;DHT22;18338;53.240;8.798;2023-02-11T15:37:03;9.00;99.90
31765;DHT22;18338;53.240;8.798;2023-02-11T15:39:41;9.00;99.90
31765;DHT22;18338;53.240;8.798;2023-02-11T15:47:48;9.00;99.90
31765;DHT22;18338;53.240;8.798;2023-02-11T15:50:21;9.00;99.90
31765;DHT22;18338;53.240;8.798;2023-02-11T15:52:49;9.00;99.90
31765;DHT22;18338;53.240;8.798;2023-02-11T15:55:16;9.00;99.90
31765;DHT22;18338;53.240;8.798;2023-02-11T15:57:50;9.00;99.90
31765;DHT22;18338;53.240;8.798;2023-02-11T16:00:20;9.00;99.90
31765;DHT22;18338;53.240;8.798;2023-02-11T16:02:54;9.00;99.90
31765;DHT22;18338;53.240;8.798;2023-02-11T16:05:30;9.00;99.90
31765;DHT22;18338;53.240;8.798;2023-02-11T16:07:59;9.00;99.90
31765;DHT22;18338;53.240;8.798;2023-02-11T16:10:34;9.00;99.90
31765;DHT22;18338;53.240;8.798;2023-02-11T16:15:45;9.00;99.90
31765;DHT22;18338;53.240;8.798;2023-02-11T16:18:42;9.00;99.90
31765;DHT22;18338;53.240;8.798;2023-02-11T16:21:40;8.90;99.90
31765;DHT22;18338;53.240;8.798;2023-02-11T16:26:58;8.90;99.90
31765;DHT22;18338;53.240;8.798;2023-02-11T16:29:28;8.90;99.90
31765;DHT22;18338;53.240;8.798;2023-02-11T16:34:39;8.90;99.90
31765;DHT22;18338;53.240;8.798;2023-02-11T16:37:09;8.90;99.90
31765;DHT22;18338;53.240;8.798;2023-02-11T16:39:36;8.80;99.90
31765;DHT22;18338;53.240;8.798;2023-02-11T16:42:03;8.90;99.90
31765;DHT22;18338;53.240;8.798;2023-02-11T16:44:33;8.90;99.90
31765;DHT22;18338;53.240;8.798;2023-02-11T16:47:01;8.90;99.90
31765;DHT22;18338;53.240;8.798;2023-02-11T16:49:40;8.80;99.90
31765;DHT22;18338;53.240;8.798;2023-02-11T16:52:12;8.90;99.90
31765;DHT22;18338;53.240;8.798;2023-02-11T16:54:39;8.80;99.90
31765;DHT22;18338;53.240;8.798;2023-02-11T16:57:14;8.80;99.90
31765;DHT22;18338;53.240;8.798;2023-02-11T16:59:42;8.90;99.90
31765;DHT22;18338;53.240;8.798;2023-02-11T17:02:17;8.80;99.90
31765;DHT22;18338;53.240;8.798;2023-02-11T17:04:49;8.80;99.90
31765;DHT22;18338;53.240;8.798;2023-02-11T17:07:17;8.80;99.90
31765;DHT22;18338;53.240;8.798;2023-02-11T17:09:45;8.80;99.90
31765;DHT22;18338;53.240;8.798;2023-02-11T17:12:13;8.80;99.90
31765;DHT22;18338;53.240;8.798;2023-02-11T17:14:40;8.80;99.90
31765;DHT22;18338;53.240;8.798;2023-02-11T17:17:08;8.80;99.90
31765;DHT22;18338;53.240;8.798;2023-02-11T17:19:36;8.80;99.90
31765;DHT22;18338;53.240;8.798;2023-02-11T17:22:05;8.80;99.90
31765;DHT22;18338;53.240;8.798;2023-02-11T17:24:32;8.80;99.90
31765;DHT22;18338;53.240;8.798;2023-02-11T17:26:59;8.80;99.90
31765;DHT22;18338;53.240;8.798;2023-02-11T17:29:26;8.70;99.90
31765;DHT22;18338;53.240;8.798;2023-02-11T17:31:53;8.70;99.90
31765;DHT22;18338;53.240;8.798;2023-02-11T17:34:21;8.70;99.90
31765;DHT22;18338;53.240;8.798;2023-02-11T17:36:48;8.70;99.90
31765;DHT22;18338;53.240;8.798;2023-02-11T17:39:15;8.70;99.90
31765;DHT22;18338;53.240;8.798;2023-02-11T17:41:42;8.70;99.90
31765;DHT22;18338;53.240;8.798;2023-02-11T17:44:09;8.70;99.90
31765;DHT22;18338;53.240;8.798;2023-02-11T17:46:37;8.70;99.90
31765;DHT22;18338;53.240;8.798;2023-02-11T17:49:04;8.70;99.90
31765;DHT22;18338;53.240;8.798;2023-02-11T17:55:25;8.70;99.90
31765;DHT22;18338;53.240;8.798;2023-02-11T17:57:52;8.70;99.90
31765;DHT22;18338;53.240;8.798;2023-02-11T18:00:19;8.70;99.90
31765;DHT22;18338;53.240;8.798;2023-02-11T18:02:46;8.70;99.90
31765;DHT22;18338;53.240;8.798;2023-02-11T18:05:13;8.70;99.90
31765;DHT22;18338;53.240;8.798;2023-02-11T18:07:40;8.70;99.90
31765;DHT22;18338;53.240;8.798;2023-02-11T18:10:07;8.60;99.90
31765;DHT22;18338;53.240;8.798;2023-02-11T18:12:34;8.60;99.90
31765;DHT22;18338;53.240;8.798;2023-02-11T18:15:01;8.60;99.90
31765;DHT22;18338;53.240;8.798;2023-02-11T18:17:28;8.60;99.90
31765;DHT22;18338;53.240;8.798;2023-02-11T18:19:56;8.60;99.90
31765;DHT22;18338;53.240;8.798;2023-02-11T18:22:23;8.60;99.90
31765;DHT22;18338;53.240;8.798;2023-02-11T18:28:20;8.60;99.90